TAF and METAR

No METAR available for Brest Airport

TAF for Brest Airport

TAF UMBB 241405Z 2415/2424 27005G10MPS 9999 BKN015 TEMPO 2415/2421 3000 -SHRA SCT007 SCT020CB
Report created 24. apr 16:05

between 24. apr 17:00 - 24. apr 02:00

wind 10 knots from W (270°) with gusts up to 20 knots visibility > 10km broken clouds (~75% cover) at 1500 feet

temporarily between 24. apr 17:00 - 24. apr 23:00

visibility 3000 meters light rain showers scattered clouds (~50% cover) at 700 feet scattered clouds (~50% cover) at 2000 feet of type cumulonimbus
Brest Airport in Belarus at 143m

Latest 5 airports